»·PEaware :: SKW4235 KSGU-KSLC

SKW4235 :: KSGU-KSLC

FLIGHT INFORMATION

Flight Status: Arrived
Operator:
SkyWest Airlines
More flights by this operator :: More flights under this callsign
Pilot: Anonymous 11975 (11975)
Aircraft: CANADAIR CL-600 CRJ-900
(CRJ9)
More flights by this aircraft type
Origin: KSGU St George Mun
United States
Destination: KSLC Salt Lake City Intl
United States
More flights between these airports :: More routes between these airports
Route: HIVKA2 URIAH MLF DELTA6
File this flight plan on PilotEdge
Remarks:
Altitude:
(Current/Filed)
27,000ft
Speed:
(Current/Filed)
460kts
Departed: 29-Aug-22 09:26 PM
Arrived: 29-Aug-22 10:12 PM
Distance/Time
Traveled:
234nm/0:46
Distance/Time
To Go:
Arrived

Flight Plot

Page will automatically refresh every two minutes.

Flight plan parsing failed; only flown route is shown


Map Options




Map Legend


Flown Route
Filed Route
Departure Airport
Arrival Airport
Navaid (VOR, NDB)
Fix

Horizontal Profiles

Position Reports

Time Latitude Longitude Heading Altitude Ground
Speed
29-Aug-22 20:49 37.030557 -113.510191 110 2854ft 0kts
29-Aug-22 20:50 37.030557 -113.510191 110 2854ft 0kts
29-Aug-22 20:51 37.030557 -113.510191 110 2854ft 0kts
29-Aug-22 20:52 37.030557 -113.510191 110 2854ft 0kts
29-Aug-22 20:53 37.030557 -113.510191 110 2854ft 0kts
29-Aug-22 20:54 37.030557 -113.510191 110 2854ft 0kts
29-Aug-22 20:55 37.030557 -113.510191 110 2854ft 0kts
29-Aug-22 20:56 37.030557 -113.510191 110 2854ft 0kts
29-Aug-22 20:57 37.030557 -113.510191 110 2854ft 0kts
29-Aug-22 20:58 37.030557 -113.510191 110 2854ft 0kts
29-Aug-22 20:59 37.030557 -113.510191 110 2854ft 0kts
29-Aug-22 21:00 37.030557 -113.510191 110 2854ft 0kts
29-Aug-22 21:01 37.030557 -113.510191 110 2854ft 0kts
29-Aug-22 21:02 37.030557 -113.510191 110 2854ft 0kts
29-Aug-22 21:03 37.030557 -113.510191 110 2854ft 0kts
29-Aug-22 21:04 37.030557 -113.510191 110 2854ft 0kts
29-Aug-22 21:05 37.030557 -113.510191 110 2854ft 0kts
29-Aug-22 21:06 37.030557 -113.510191 110 2854ft 0kts
29-Aug-22 21:07 37.030557 -113.510191 110 2854ft 0kts
29-Aug-22 21:08 37.030557 -113.510191 110 2854ft 0kts
29-Aug-22 21:09 37.030557 -113.510191 110 2854ft 0kts
29-Aug-22 21:10 37.030557 -113.510191 110 2854ft 0kts
29-Aug-22 21:11 37.030557 -113.510191 110 2854ft 0kts
29-Aug-22 21:12 37.030625 -113.510423 110 2851ft 2kts
29-Aug-22 21:13 37.030671 -113.511140 20 2849ft 2kts
29-Aug-22 21:14 37.030494 -113.511210 18 2850ft 0kts
29-Aug-22 21:15 37.030494 -113.511210 18 2854ft 0kts
29-Aug-22 21:16 37.030494 -113.511210 18 2854ft 0kts
29-Aug-22 21:17 37.031513 -113.510683 23 2853ft 11kts
29-Aug-22 21:18 37.034548 -113.509058 22 2862ft 11kts
29-Aug-22 21:19 37.037349 -113.507581 22 2869ft 10kts
29-Aug-22 21:20 37.040381 -113.505972 23 2876ft 13kts
29-Aug-22 21:21 37.044228 -113.503928 23 2884ft 15kts
29-Aug-22 21:22 37.047244 -113.502351 12 2890ft 7kts
29-Aug-22 21:23 37.047719 -113.503078 293 2890ft 0kts
29-Aug-22 21:24 37.047759 -113.503199 292 2890ft 3kts
29-Aug-22 21:25 37.042198 -113.507241 203 2879ft 103kts
29-Aug-22 21:26 36.999766 -113.530277 220 4481ft 192kts
29-Aug-22 21:27 37.027942 -113.570440 7 6163ft 250kts
29-Aug-22 21:28 37.099214 -113.537491 26 9118ft 285kts
29-Aug-22 21:29 37.175246 -113.553410 330 11544ft 330kts
29-Aug-22 21:30 37.254495 -113.618151 330 14989ft 346kts
29-Aug-22 21:31 37.349440 -113.651398 347 18236ft 362kts
29-Aug-22 21:32 37.449467 -113.684175 344 20853ft 383kts
29-Aug-22 21:33 37.553537 -113.664277 27 23215ft 406kts
29-Aug-22 21:34 37.650576 -113.585026 31 25239ft 423kts
29-Aug-22 21:35 37.751880 -113.504072 30 26831ft 444kts
29-Aug-22 21:36 37.859769 -113.417886 30 27073ft 465kts
29-Aug-22 21:37 37.969138 -113.329888 30 27051ft 466kts
29-Aug-22 21:38 38.078724 -113.241646 30 27026ft 466kts
29-Aug-22 21:39 38.187596 -113.153369 31 27094ft 460kts
29-Aug-22 21:40 38.295111 -113.066243 30 27197ft 456kts
29-Aug-22 21:41 38.404538 -112.987190 20 27231ft 455kts
29-Aug-22 21:42 38.523034 -112.926945 20 27216ft 461kts
29-Aug-22 21:43 38.642017 -112.863135 21 27121ft 465kts
29-Aug-22 21:44 38.761517 -112.798878 21 27030ft 466kts
29-Aug-22 21:45 38.880566 -112.734830 21 26410ft 457kts
29-Aug-22 21:46 38.996932 -112.671868 21 25021ft 455kts
29-Aug-22 21:47 39.113057 -112.608767 21 24115ft 449kts
29-Aug-22 21:48 39.227203 -112.546619 21 24035ft 443kts
29-Aug-22 21:49 39.342433 -112.489791 13 24039ft 448kts
29-Aug-22 21:50 39.465647 -112.451890 13 24049ft 452kts
29-Aug-22 21:51 39.585769 -112.411681 13 22449ft 438kts
29-Aug-22 21:52 39.702576 -112.372507 13 20490ft 426kts
29-Aug-22 21:53 39.813067 -112.335350 13 18685ft 413kts
29-Aug-22 21:54 39.921269 -112.298941 13 17077ft 400kts
29-Aug-22 21:55 40.029359 -112.262577 13 16893ft 398kts
29-Aug-22 21:56 40.135921 -112.226793 14 15441ft 394kts
29-Aug-22 21:57 40.240876 -112.191097 14 14056ft 386kts
29-Aug-22 21:58 40.345042 -112.155515 14 13526ft 385kts
29-Aug-22 21:59 40.447931 -112.120256 14 12968ft 383kts
29-Aug-22 22:00 40.551316 -112.085159 14 12154ft 384kts
29-Aug-22 22:01 40.655943 -112.079757 356 11022ft 375kts
29-Aug-22 22:02 40.760230 -112.092938 355 10840ft 375kts
29-Aug-22 22:03 40.850434 -112.103951 356 10570ft 285kts
29-Aug-22 22:04 40.927816 -112.113099 356 8783ft 274kts
29-Aug-22 22:05 41.000234 -112.110257 43 7237ft 254kts
29-Aug-22 22:06 40.986096 -112.033204 131 7081ft 222kts
29-Aug-22 22:07 40.934323 -112.013998 174 6645ft 169kts
29-Aug-22 22:08 40.890764 -112.009026 173 5917ft 156kts
29-Aug-22 22:09 40.848156 -112.003930 173 5142ft 152kts
29-Aug-22 22:10 40.806480 -111.999128 174 4258ft 145kts
29-Aug-22 22:11 40.790955 -111.995493 98 4236ft 8kts
29-Aug-22 22:12 40.791109 -111.992220 84 4233ft 13kts
29-Aug-22 22:13 40.790287 -111.987749 173 4229ft 15kts
29-Aug-22 22:14 40.787983 -111.985441 68 4230ft 0kts
29-Aug-22 22:15 40.787983 -111.985441 68 4230ft 0kts
29-Aug-22 22:16 40.787983 -111.985441 68 4230ft 0kts
29-Aug-22 22:17 40.787983 -111.985441 68 4230ft 0kts
29-Aug-22 22:18 40.787983 -111.985441 68 4230ft 0kts
29-Aug-22 22:19 40.787983 -111.985441 68 4230ft 0kts
29-Aug-22 22:20 40.787983 -111.985441 68 4230ft 0kts
29-Aug-22 22:21 40.787983 -111.985441 68 4230ft 0kts
29-Aug-22 22:22 40.787983 -111.985441 68 4230ft 0kts
29-Aug-22 22:23 40.787983 -111.985441 68 4230ft 0kts
29-Aug-22 22:24 40.787983 -111.985441 68 4230ft 0kts
29-Aug-22 22:25 40.787983 -111.985441 68 4230ft 0kts

Navigation Log

Ident Type
Flight plan parsing failed, navigation log unavailable